Aérodrome :
LOGIN :

S'inscrire | Disclaimer

   EN    FR    IT 

 










Légende :    VFR   VFR Marginal   IFR   IFR Intensif   IFR Très Intensif
Visi : 
Plafond : 
>= 8 km
>= 3000ft
5 à 8 km
1000 à 3000 ft
1500m à 5 km
500 à 1000 ft
800 à 1500m
200 à 500 ft
< 800m
< 200 ft
Symboles :   Orages  Brouillard  Fortes neiges  Fortes précipitations  Vent > 20 kt
SIGMETs :   Divers  Orages  Givrage  Turbulence  Onde Orograph.  Cendres Volcan.






- Altitude de l'aérodrome : 468 ft
- Code IATA : GRO


LEGE - Girona Costa Brava

DERNIER METAR :
  • 231500Z 24016KT 210V290 CAVOK 14/02 Q1003

METARs EXPIRÉS :
  • 231430Z 25016KT 200V290 CAVOK 14/01 Q1004
  • 231400Z 25017KT 190V290 CAVOK 13/01 Q1003
  • 231330Z 24015G26KT 200V290 CAVOK 14/01 Q1003
  • 231300Z VRB09KT CAVOK 13/01 Q1004
  • 231230Z 26005KT 200V300 CAVOK 13/02 Q1005

TAF TAF LEGE
Valide du 23 à 12h jusqu'au 24 à 12h UTC


231100Z 2312/2412 VRB04KT 9999 FEW030 TX16/2313Z TN03/2407Z
BECMG 2312/2314 25014KT
BECMG 2322/2324 VRB05KT



MET'MAP, la Météo Aéronautique d'un coup d'oeil ! - Copyright ORBIFLY Décembre 2007 - Disclaimer

ORBIFLY MET'MAP TEAM :

Programmation & Développement : Alexandra Zaïnal
Sur une idée originale de : Baudouin d'Aumeries
Assistance à la programmation : Marc-Olivier Méhu
Soutien technique & logistique : Manuel Goepfert

Contact : metmap@orbifly.com




SOURCES & CREDITS :

   NOAA